sensor_id;sensor_type;location;lat;lon;timestamp;P1;durP1;ratioP1;P2;durP2;ratioP2
18489;SDS011;9374;51.382;-0.156;2022-07-10T00:02:49;2.03;;;1.92;;
18489;SDS011;9374;51.382;-0.156;2022-07-10T00:08:15;2.75;;;2.55;;
18489;SDS011;9374;51.382;-0.156;2022-07-10T00:13:39;2.50;;;2.30;;
18489;SDS011;9374;51.382;-0.156;2022-07-10T00:19:02;4.05;;;2.70;;
18489;SDS011;9374;51.382;-0.156;2022-07-10T00:24:27;2.28;;;2.03;;
18489;SDS011;9374;51.382;-0.156;2022-07-10T00:29:51;5.45;;;2.40;;
18489;SDS011;9374;51.382;-0.156;2022-07-10T00:35:15;5.43;;;2.33;;
18489;SDS011;9374;51.382;-0.156;2022-07-10T00:40:40;4.95;;;2.60;;
18489;SDS011;9374;51.382;-0.156;2022-07-10T00:46:03;6.35;;;2.67;;
18489;SDS011;9374;51.382;-0.156;2022-07-10T00:51:28;3.40;;;2.42;;
18489;SDS011;9374;51.382;-0.156;2022-07-10T00:56:54;3.13;;;2.40;;
18489;SDS011;9374;51.382;-0.156;2022-07-10T01:02:18;3.05;;;2.40;;
18489;SDS011;9374;51.382;-0.156;2022-07-10T01:07:42;3.22;;;2.40;;
18489;SDS011;9374;51.382;-0.156;2022-07-10T01:13:07;9.60;;;2.75;;
18489;SDS011;9374;51.382;-0.156;2022-07-10T01:18:31;3.20;;;2.58;;
18489;SDS011;9374;51.382;-0.156;2022-07-10T01:23:56;5.32;;;3.22;;
18489;SDS011;9374;51.382;-0.156;2022-07-10T01:29:20;5.63;;;4.28;;
18489;SDS011;9374;51.382;-0.156;2022-07-10T01:34:45;6.95;;;4.28;;
18489;SDS011;9374;51.382;-0.156;2022-07-10T01:40:11;4.60;;;3.40;;
18489;SDS011;9374;51.382;-0.156;2022-07-10T01:45:35;6.35;;;3.42;;
18489;SDS011;9374;51.382;-0.156;2022-07-10T01:50:58;3.72;;;3.38;;
18489;SDS011;9374;51.382;-0.156;2022-07-10T01:56:23;6.43;;;3.78;;
18489;SDS011;9374;51.382;-0.156;2022-07-10T02:01:47;7.75;;;3.90;;
18489;SDS011;9374;51.382;-0.156;2022-07-10T02:07:11;3.63;;;3.33;;
18489;SDS011;9374;51.382;-0.156;2022-07-10T02:12:37;5.30;;;3.45;;
18489;SDS011;9374;51.382;-0.156;2022-07-10T02:18:01;4.32;;;2.97;;
18489;SDS011;9374;51.382;-0.156;2022-07-10T02:23:24;4.45;;;2.72;;
18489;SDS011;9374;51.382;-0.156;2022-07-10T02:28:49;5.97;;;2.70;;
18489;SDS011;9374;51.382;-0.156;2022-07-10T02:34:13;4.78;;;2.92;;
18489;SDS011;9374;51.382;-0.156;2022-07-10T02:39:37;3.78;;;2.33;;
18489;SDS011;9374;51.382;-0.156;2022-07-10T02:45:02;4.30;;;2.45;;
18489;SDS011;9374;51.382;-0.156;2022-07-10T02:50:26;6.35;;;2.50;;
18489;SDS011;9374;51.382;-0.156;2022-07-10T02:55:50;3.97;;;2.63;;
18489;SDS011;9374;51.382;-0.156;2022-07-10T03:01:15;5.65;;;2.67;;
18489;SDS011;9374;51.382;-0.156;2022-07-10T03:06:38;4.35;;;3.05;;
18489;SDS011;9374;51.382;-0.156;2022-07-10T03:12:02;3.35;;;3.00;;
18489;SDS011;9374;51.382;-0.156;2022-07-10T03:17:28;3.45;;;2.55;;
18489;SDS011;9374;51.382;-0.156;2022-07-10T03:22:52;2.97;;;2.70;;
18489;SDS011;9374;51.382;-0.156;2022-07-10T03:28:16;7.68;;;3.65;;
18489;SDS011;9374;51.382;-0.156;2022-07-10T03:33:40;5.82;;;3.30;;
18489;SDS011;9374;51.382;-0.156;2022-07-10T03:39:04;5.15;;;3.20;;
18489;SDS011;9374;51.382;-0.156;2022-07-10T03:44:28;6.22;;;3.50;;
18489;SDS011;9374;51.382;-0.156;2022-07-10T03:49:53;6.43;;;3.40;;
18489;SDS011;9374;51.382;-0.156;2022-07-10T03:55:16;4.10;;;3.08;;
18489;SDS011;9374;51.382;-0.156;2022-07-10T04:00:40;4.15;;;2.75;;
18489;SDS011;9374;51.382;-0.156;2022-07-10T04:06:06;5.95;;;2.58;;
18489;SDS011;9374;51.382;-0.156;2022-07-10T04:11:30;4.22;;;2.63;;
18489;SDS011;9374;51.382;-0.156;2022-07-10T04:16:56;4.68;;;2.70;;
18489;SDS011;9374;51.382;-0.156;2022-07-10T04:22:21;5.95;;;2.58;;
18489;SDS011;9374;51.382;-0.156;2022-07-10T04:27:45;3.78;;;2.63;;
18489;SDS011;9374;51.382;-0.156;2022-07-10T04:33:08;4.22;;;2.45;;
18489;SDS011;9374;51.382;-0.156;2022-07-10T04:38:33;5.50;;;2.28;;
18489;SDS011;9374;51.382;-0.156;2022-07-10T04:43:57;3.40;;;2.15;;
18489;SDS011;9374;51.382;-0.156;2022-07-10T04:49:21;5.78;;;2.10;;
18489;SDS011;9374;51.382;-0.156;2022-07-10T04:54:46;2.22;;;2.03;;
18489;SDS011;9374;51.382;-0.156;2022-07-10T05:00:10;2.20;;;1.73;;
18489;SDS011;9374;51.382;-0.156;2022-07-10T05:05:34;3.67;;;1.60;;
18489;SDS011;9374;51.382;-0.156;2022-07-10T05:10:59;2.85;;;1.25;;
18489;SDS011;9374;51.382;-0.156;2022-07-10T05:16:23;3.47;;;1.30;;
18489;SDS011;9374;51.382;-0.156;2022-07-10T05:21:47;2.22;;;0.93;;
18489;SDS011;9374;51.382;-0.156;2022-07-10T05:27:12;2.15;;;1.17;;
18489;SDS011;9374;51.382;-0.156;2022-07-10T05:32:42;3.38;;;1.23;;
18489;SDS011;9374;51.382;-0.156;2022-07-10T05:38:06;3.08;;;1.38;;
18489;SDS011;9374;51.382;-0.156;2022-07-10T05:43:31;3.20;;;1.30;;
18489;SDS011;9374;51.382;-0.156;2022-07-10T05:48:55;2.83;;;1.55;;
18489;SDS011;9374;51.382;-0.156;2022-07-10T05:54:19;2.38;;;1.40;;
18489;SDS011;9374;51.382;-0.156;2022-07-10T05:59:44;3.80;;;1.60;;
18489;SDS011;9374;51.382;-0.156;2022-07-10T06:05:08;2.90;;;1.60;;
18489;SDS011;9374;51.382;-0.156;2022-07-10T06:10:31;6.05;;;1.95;;
18489;SDS011;9374;51.382;-0.156;2022-07-10T06:15:56;1.50;;;1.40;;
18489;SDS011;9374;51.382;-0.156;2022-07-10T06:21:20;3.67;;;1.48;;
18489;SDS011;9374;51.382;-0.156;2022-07-10T06:26:45;2.78;;;1.30;;
18489;SDS011;9374;51.382;-0.156;2022-07-10T06:32:10;2.15;;;1.70;;
18489;SDS011;9374;51.382;-0.156;2022-07-10T06:37:33;2.08;;;1.25;;
18489;SDS011;9374;51.382;-0.156;2022-07-10T06:42:57;1.63;;;1.33;;
18489;SDS011;9374;51.382;-0.156;2022-07-10T06:48:22;2.00;;;1.05;;
18489;SDS011;9374;51.382;-0.156;2022-07-10T06:53:49;1.42;;;0.90;;
18489;SDS011;9374;51.382;-0.156;2022-07-10T06:59:13;2.47;;;1.17;;
18489;SDS011;9374;51.382;-0.156;2022-07-10T07:04:38;1.58;;;1.23;;
18489;SDS011;9374;51.382;-0.156;2022-07-10T07:10:02;3.03;;;1.30;;
18489;SDS011;9374;51.382;-0.156;2022-07-10T07:15:26;2.08;;;1.27;;
18489;SDS011;9374;51.382;-0.156;2022-07-10T07:20:51;2.90;;;1.40;;
18489;SDS011;9374;51.382;-0.156;2022-07-10T07:26:32;1.95;;;1.35;;
18489;SDS011;9374;51.382;-0.156;2022-07-10T07:31:56;2.60;;;1.10;;
18489;SDS011;9374;51.382;-0.156;2022-07-10T07:37:22;2.33;;;1.55;;
18489;SDS011;9374;51.382;-0.156;2022-07-10T07:42:46;2.10;;;1.35;;
18489;SDS011;9374;51.382;-0.156;2022-07-10T07:48:10;1.55;;;1.10;;
18489;SDS011;9374;51.382;-0.156;2022-07-10T07:53:35;2.58;;;0.93;;
18489;SDS011;9374;51.382;-0.156;2022-07-10T07:58:58;1.88;;;1.00;;
18489;SDS011;9374;51.382;-0.156;2022-07-10T08:04:22;2.85;;;1.40;;
18489;SDS011;9374;51.382;-0.156;2022-07-10T08:09:47;2.65;;;1.20;;
18489;SDS011;9374;51.382;-0.156;2022-07-10T08:15:12;1.52;;;1.30;;
18489;SDS011;9374;51.382;-0.156;2022-07-10T08:20:36;1.67;;;1.08;;
18489;SDS011;9374;51.382;-0.156;2022-07-10T08:26:01;1.83;;;1.20;;
18489;SDS011;9374;51.382;-0.156;2022-07-10T08:31:25;1.92;;;1.20;;
18489;SDS011;9374;51.382;-0.156;2022-07-10T08:36:49;2.50;;;1.42;;
18489;SDS011;9374;51.382;-0.156;2022-07-10T08:42:15;2.25;;;0.93;;
18489;SDS011;9374;51.382;-0.156;2022-07-10T08:47:39;1.00;;;0.90;;
18489;SDS011;9374;51.382;-0.156;2022-07-10T08:53:08;1.95;;;0.93;;
18489;SDS011;9374;51.382;-0.156;2022-07-10T08:58:36;2.55;;;1.13;;
18489;SDS011;9374;51.382;-0.156;2022-07-10T09:04:01;1.58;;;1.00;;
18489;SDS011;9374;51.382;-0.156;2022-07-10T09:09:25;0.82;;;0.80;;
18489;SDS011;9374;51.382;-0.156;2022-07-10T09:14:50;1.30;;;0.75;;
18489;SDS011;9374;51.382;-0.156;2022-07-10T09:20:23;3.55;;;1.50;;
18489;SDS011;9374;51.382;-0.156;2022-07-10T09:25:51;3.78;;;1.27;;
18489;SDS011;9374;51.382;-0.156;2022-07-10T09:31:17;1.48;;;1.20;;
18489;SDS011;9374;51.382;-0.156;2022-07-10T09:36:41;2.75;;;1.10;;
18489;SDS011;9374;51.382;-0.156;2022-07-10T09:42:05;0.85;;;0.60;;
18489;SDS011;9374;51.382;-0.156;2022-07-10T09:47:57;1.55;;;0.93;;
18489;SDS011;9374;51.382;-0.156;2022-07-10T09:53:24;1.10;;;0.95;;
18489;SDS011;9374;51.382;-0.156;2022-07-10T09:58:49;2.05;;;1.35;;
18489;SDS011;9374;51.382;-0.156;2022-07-10T10:04:17;1.77;;;1.13;;
18489;SDS011;9374;51.382;-0.156;2022-07-10T10:09:41;0.85;;;0.85;;
18489;SDS011;9374;51.382;-0.156;2022-07-10T10:15:11;1.30;;;0.98;;
18489;SDS011;9374;51.382;-0.156;2022-07-10T10:20:37;1.17;;;0.98;;
18489;SDS011;9374;51.382;-0.156;2022-07-10T10:26:05;1.35;;;1.10;;
18489;SDS011;9374;51.382;-0.156;2022-07-10T10:31:29;3.13;;;1.20;;
18489;SDS011;9374;51.382;-0.156;2022-07-10T10:36:55;3.53;;;1.17;;
18489;SDS011;9374;51.382;-0.156;2022-07-10T10:42:31;2.22;;;1.30;;
18489;SDS011;9374;51.382;-0.156;2022-07-10T10:47:59;1.63;;;1.52;;
18489;SDS011;9374;51.382;-0.156;2022-07-10T10:53:45;2.10;;;1.60;;
18489;SDS011;9374;51.382;-0.156;2022-07-10T11:17:03;1.20;;;1.10;;
18489;SDS011;9374;51.382;-0.156;2022-07-10T11:22:35;2.72;;;1.15;;
18489;SDS011;9374;51.382;-0.156;2022-07-10T11:28:11;6.80;;;1.48;;
18489;SDS011;9374;51.382;-0.156;2022-07-10T11:33:39;3.83;;;1.30;;
18489;SDS011;9374;51.382;-0.156;2022-07-10T11:39:05;1.05;;;0.98;;
18489;SDS011;9374;51.382;-0.156;2022-07-10T11:44:31;2.65;;;1.50;;
18489;SDS011;9374;51.382;-0.156;2022-07-10T11:49:55;1.30;;;1.20;;
18489;SDS011;9374;51.382;-0.156;2022-07-10T11:55:20;2.08;;;1.20;;
18489;SDS011;9374;51.382;-0.156;2022-07-10T12:00:57;1.50;;;1.40;;
18489;SDS011;9374;51.382;-0.156;2022-07-10T12:06:23;1.60;;;1.13;;
18489;SDS011;9374;51.382;-0.156;2022-07-10T12:11:57;1.25;;;0.95;;
18489;SDS011;9374;51.382;-0.156;2022-07-10T12:17:23;2.45;;;1.27;;
18489;SDS011;9374;51.382;-0.156;2022-07-10T12:22:47;2.13;;;1.40;;
18489;SDS011;9374;51.382;-0.156;2022-07-10T12:28:11;1.23;;;0.90;;
18489;SDS011;9374;51.382;-0.156;2022-07-10T12:33:36;3.15;;;2.10;;
18489;SDS011;9374;51.382;-0.156;2022-07-10T12:39:01;4.13;;;2.88;;
18489;SDS011;9374;51.382;-0.156;2022-07-10T12:44:35;1.88;;;1.70;;
18489;SDS011;9374;51.382;-0.156;2022-07-10T12:50:03;1.50;;;1.40;;
18489;SDS011;9374;51.382;-0.156;2022-07-10T12:55:34;1.10;;;0.90;;
18489;SDS011;9374;51.382;-0.156;2022-07-10T13:00:59;18.95;;;11.15;;
18489;SDS011;9374;51.382;-0.156;2022-07-10T13:06:31;17.85;;;11.07;;
18489;SDS011;9374;51.382;-0.156;2022-07-10T13:11:57;8.30;;;5.93;;
18489;SDS011;9374;51.382;-0.156;2022-07-10T13:17:21;5.97;;;4.07;;
18489;SDS011;9374;51.382;-0.156;2022-07-10T13:22:46;5.53;;;2.97;;
18489;SDS011;9374;51.382;-0.156;2022-07-10T13:28:10;2.10;;;1.70;;
18489;SDS011;9374;51.382;-0.156;2022-07-10T13:33:34;2.97;;;1.50;;
18489;SDS011;9374;51.382;-0.156;2022-07-10T13:38:59;1.20;;;1.10;;
18489;SDS011;9374;51.382;-0.156;2022-07-10T13:44:23;2.13;;;1.33;;
18489;SDS011;9374;51.382;-0.156;2022-07-10T13:49:46;1.40;;;1.30;;
18489;SDS011;9374;51.382;-0.156;2022-07-10T13:55:12;1.73;;;1.27;;
18489;SDS011;9374;51.382;-0.156;2022-07-10T14:00:35;2.15;;;1.10;;
18489;SDS011;9374;51.382;-0.156;2022-07-10T14:06:00;2.90;;;2.13;;
18489;SDS011;9374;51.382;-0.156;2022-07-10T14:11:25;2.90;;;2.28;;
18489;SDS011;9374;51.382;-0.156;2022-07-10T14:16:49;4.00;;;1.90;;
18489;SDS011;9374;51.382;-0.156;2022-07-10T14:22:13;2.97;;;2.47;;
18489;SDS011;9374;51.382;-0.156;2022-07-10T14:27:38;1.95;;;1.40;;
18489;SDS011;9374;51.382;-0.156;2022-07-10T14:33:02;2.28;;;1.50;;
18489;SDS011;9374;51.382;-0.156;2022-07-10T14:38:25;1.67;;;1.10;;
18489;SDS011;9374;51.382;-0.156;2022-07-10T14:43:51;2.78;;;1.50;;
18489;SDS011;9374;51.382;-0.156;2022-07-10T14:49:14;2.10;;;1.50;;
18489;SDS011;9374;51.382;-0.156;2022-07-10T14:54:38;2.15;;;1.15;;
18489;SDS011;9374;51.382;-0.156;2022-07-10T15:00:04;2.03;;;1.50;;
18489;SDS011;9374;51.382;-0.156;2022-07-10T15:05:28;1.58;;;1.33;;
18489;SDS011;9374;51.382;-0.156;2022-07-10T15:10:52;2.45;;;1.23;;
18489;SDS011;9374;51.382;-0.156;2022-07-10T15:16:18;2.58;;;1.55;;
18489;SDS011;9374;51.382;-0.156;2022-07-10T15:21:42;1.77;;;1.23;;
18489;SDS011;9374;51.382;-0.156;2022-07-10T15:27:05;1.77;;;1.30;;
18489;SDS011;9374;51.382;-0.156;2022-07-10T15:32:30;3.08;;;0.95;;
18489;SDS011;9374;51.382;-0.156;2022-07-10T15:37:54;0.98;;;0.80;;
18489;SDS011;9374;51.382;-0.156;2022-07-10T15:43:20;1.25;;;1.15;;
18489;SDS011;9374;51.382;-0.156;2022-07-10T15:48:45;2.88;;;1.30;;
18489;SDS011;9374;51.382;-0.156;2022-07-10T15:54:09;2.22;;;1.50;;
18489;SDS011;9374;51.382;-0.156;2022-07-10T15:59:33;1.10;;;1.02;;
18489;SDS011;9374;51.382;-0.156;2022-07-10T16:04:59;1.65;;;1.17;;
18489;SDS011;9374;51.382;-0.156;2022-07-10T16:10:22;0.90;;;0.90;;
18489;SDS011;9374;51.382;-0.156;2022-07-10T16:15:46;1.52;;;1.20;;
18489;SDS011;9374;51.382;-0.156;2022-07-10T16:21:11;2.78;;;1.23;;
18489;SDS011;9374;51.382;-0.156;2022-07-10T16:26:36;2.53;;;1.27;;
18489;SDS011;9374;51.382;-0.156;2022-07-10T16:32:00;1.20;;;1.05;;
18489;SDS011;9374;51.382;-0.156;2022-07-10T16:37:25;1.38;;;1.17;;
18489;SDS011;9374;51.382;-0.156;2022-07-10T16:42:49;4.03;;;1.40;;
18489;SDS011;9374;51.382;-0.156;2022-07-10T16:48:13;1.30;;;1.00;;
18489;SDS011;9374;51.382;-0.156;2022-07-10T16:53:38;1.27;;;1.17;;
18489;SDS011;9374;51.382;-0.156;2022-07-10T16:59:21;2.95;;;1.38;;
18489;SDS011;9374;51.382;-0.156;2022-07-10T17:04:45;1.42;;;1.30;;
18489;SDS011;9374;51.382;-0.156;2022-07-10T17:10:11;1.73;;;1.20;;
18489;SDS011;9374;51.382;-0.156;2022-07-10T17:15:35;1.17;;;1.08;;
18489;SDS011;9374;51.382;-0.156;2022-07-10T17:20:59;3.83;;;1.30;;
18489;SDS011;9374;51.382;-0.156;2022-07-10T17:26:24;0.73;;;0.73;;
18489;SDS011;9374;51.382;-0.156;2022-07-10T17:31:48;1.95;;;1.15;;
18489;SDS011;9374;51.382;-0.156;2022-07-10T17:37:12;1.15;;;1.00;;
18489;SDS011;9374;51.382;-0.156;2022-07-10T17:42:37;1.92;;;1.10;;
18489;SDS011;9374;51.382;-0.156;2022-07-10T17:48:02;1.92;;;1.10;;
18489;SDS011;9374;51.382;-0.156;2022-07-10T17:53:26;1.83;;;1.17;;
18489;SDS011;9374;51.382;-0.156;2022-07-10T17:58:52;2.38;;;1.80;;
18489;SDS011;9374;51.382;-0.156;2022-07-10T18:04:16;3.00;;;1.80;;
18489;SDS011;9374;51.382;-0.156;2022-07-10T18:09:40;1.80;;;1.58;;
18489;SDS011;9374;51.382;-0.156;2022-07-10T18:15:06;3.47;;;1.88;;
18489;SDS011;9374;51.382;-0.156;2022-07-10T18:20:37;5.65;;;1.73;;
18489;SDS011;9374;51.382;-0.156;2022-07-10T18:26:02;2.80;;;1.60;;
18489;SDS011;9374;51.382;-0.156;2022-07-10T18:31:28;3.22;;;1.83;;
18489;SDS011;9374;51.382;-0.156;2022-07-10T18:36:51;2.47;;;1.83;;
18489;SDS011;9374;51.382;-0.156;2022-07-10T18:42:15;2.00;;;1.17;;
18489;SDS011;9374;51.382;-0.156;2022-07-10T18:47:40;2.65;;;1.73;;
18489;SDS011;9374;51.382;-0.156;2022-07-10T18:53:04;1.48;;;1.35;;
18489;SDS011;9374;51.382;-0.156;2022-07-10T18:58:27;4.18;;;1.60;;
18489;SDS011;9374;51.382;-0.156;2022-07-10T19:03:52;5.18;;;1.88;;
18489;SDS011;9374;51.382;-0.156;2022-07-10T19:09:16;4.07;;;1.52;;
18489;SDS011;9374;51.382;-0.156;2022-07-10T19:14:40;3.33;;;1.40;;
18489;SDS011;9374;51.382;-0.156;2022-07-10T19:20:05;2.20;;;1.40;;
18489;SDS011;9374;51.382;-0.156;2022-07-10T19:25:31;1.42;;;1.33;;
18489;SDS011;9374;51.382;-0.156;2022-07-10T19:30:56;3.30;;;1.25;;
18489;SDS011;9374;51.382;-0.156;2022-07-10T19:36:21;3.90;;;1.50;;
18489;SDS011;9374;51.382;-0.156;2022-07-10T19:41:45;6.55;;;1.90;;
18489;SDS011;9374;51.382;-0.156;2022-07-10T19:47:09;5.55;;;1.63;;
18489;SDS011;9374;51.382;-0.156;2022-07-10T19:52:34;4.40;;;1.85;;
18489;SDS011;9374;51.382;-0.156;2022-07-10T19:57:57;2.17;;;1.70;;
18489;SDS011;9374;51.382;-0.156;2022-07-10T20:03:23;5.50;;;1.60;;
18489;SDS011;9374;51.382;-0.156;2022-07-10T20:08:51;3.17;;;1.50;;
18489;SDS011;9374;51.382;-0.156;2022-07-10T20:14:14;1.95;;;1.23;;
18489;SDS011;9374;51.382;-0.156;2022-07-10T20:19:44;3.05;;;1.42;;
18489;SDS011;9374;51.382;-0.156;2022-07-10T20:25:09;4.82;;;1.45;;
18489;SDS011;9374;51.382;-0.156;2022-07-10T20:30:33;2.15;;;1.38;;
18489;SDS011;9374;51.382;-0.156;2022-07-10T20:35:56;3.00;;;1.08;;
18489;SDS011;9374;51.382;-0.156;2022-07-10T20:41:39;2.72;;;1.17;;
18489;SDS011;9374;51.382;-0.156;2022-07-10T20:47:03;1.77;;;1.20;;
18489;SDS011;9374;51.382;-0.156;2022-07-10T20:52:27;3.03;;;1.27;;
18489;SDS011;9374;51.382;-0.156;2022-07-10T20:57:53;1.85;;;1.45;;
18489;SDS011;9374;51.382;-0.156;2022-07-10T21:03:18;4.18;;;1.73;;
18489;SDS011;9374;51.382;-0.156;2022-07-10T21:08:45;3.13;;;1.90;;
18489;SDS011;9374;51.382;-0.156;2022-07-10T21:14:10;2.70;;;1.95;;
18489;SDS011;9374;51.382;-0.156;2022-07-10T21:19:34;2.22;;;1.65;;
18489;SDS011;9374;51.382;-0.156;2022-07-10T21:24:58;1.50;;;1.40;;
18489;SDS011;9374;51.382;-0.156;2022-07-10T21:30:24;4.20;;;1.40;;
18489;SDS011;9374;51.382;-0.156;2022-07-10T21:35:48;1.63;;;1.40;;
18489;SDS011;9374;51.382;-0.156;2022-07-10T21:41:13;3.75;;;3.03;;
18489;SDS011;9374;51.382;-0.156;2022-07-10T21:46:38;3.08;;;1.88;;
18489;SDS011;9374;51.382;-0.156;2022-07-10T21:52:02;3.97;;;1.70;;
18489;SDS011;9374;51.382;-0.156;2022-07-10T21:57:27;2.85;;;1.60;;
18489;SDS011;9374;51.382;-0.156;2022-07-10T22:02:53;1.50;;;1.40;;
18489;SDS011;9374;51.382;-0.156;2022-07-10T22:08:16;4.63;;;1.42;;
18489;SDS011;9374;51.382;-0.156;2022-07-10T22:13:40;4.13;;;1.45;;
18489;SDS011;9374;51.382;-0.156;2022-07-10T22:19:06;2.05;;;0.93;;
18489;SDS011;9374;51.382;-0.156;2022-07-10T22:24:29;1.20;;;1.00;;
18489;SDS011;9374;51.382;-0.156;2022-07-10T22:29:53;2.38;;;1.20;;
18489;SDS011;9374;51.382;-0.156;2022-07-10T22:35:18;2.55;;;1.30;;
18489;SDS011;9374;51.382;-0.156;2022-07-10T22:40:42;2.33;;;1.42;;
18489;SDS011;9374;51.382;-0.156;2022-07-10T22:46:06;3.25;;;1.25;;
18489;SDS011;9374;51.382;-0.156;2022-07-10T22:51:32;2.55;;;1.30;;
18489;SDS011;9374;51.382;-0.156;2022-07-10T22:56:55;2.22;;;1.30;;
18489;SDS011;9374;51.382;-0.156;2022-07-10T23:02:19;1.73;;;1.40;;
18489;SDS011;9374;51.382;-0.156;2022-07-10T23:07:45;2.25;;;1.27;;
18489;SDS011;9374;51.382;-0.156;2022-07-10T23:13:08;1.60;;;0.90;;
18489;SDS011;9374;51.382;-0.156;2022-07-10T23:18:32;1.45;;;1.10;;
18489;SDS011;9374;51.382;-0.156;2022-07-10T23:24:00;1.63;;;1.25;;
18489;SDS011;9374;51.382;-0.156;2022-07-10T23:29:24;2.17;;;1.48;;
18489;SDS011;9374;51.382;-0.156;2022-07-10T23:34:48;1.90;;;1.40;;
18489;SDS011;9374;51.382;-0.156;2022-07-10T23:40:14;1.30;;;1.00;;
18489;SDS011;9374;51.382;-0.156;2022-07-10T23:45:38;1.90;;;1.30;;
18489;SDS011;9374;51.382;-0.156;2022-07-10T23:51:02;1.08;;;0.88;;
18489;SDS011;9374;51.382;-0.156;2022-07-10T23:56:27;2.45;;;1.20;;
